Time;durP1;ratioP1;P1;durP2;ratioP2;P2;SDS_P1;SDS_P2;PMS_P1;PMS_P2;Temp;Humidity;BMP_temperature;BMP_pressure;BME280_temperature;BME280_humidity;BME280_pressure;Samples;Min_cycle;Max_cycle;Signal;HPM_P1;HPM_P2
2022/11/22 00:02:38;;;;;;;155.57;85.03;;;;;;;0.63;75.46;100388.10;1726895;81;21049;-88
2022/11/22 00:05:06;;;;;;;155.63;86.25;;;;;;;0.65;75.35;100378.72;1705140;82;21730;-86
2022/11/22 00:07:33;;;;;;;152.57;86.00;;;;;;;0.63;75.39;100376.45;1708764;82;21107;-87
2022/11/22 00:10:00;;;;;;;159.05;84.07;;;;;;;0.64;75.30;100378.25;1706142;83;21075;-87
2022/11/22 00:12:42;;;;;;;149.05;81.32;;;;;;;0.63;75.25;100379.45;1709682;82;21067;-87
2022/11/22 00:15:10;;;;;;;147.85;83.37;;;;;;;0.62;75.25;100374.68;1713608;82;21395;-87
2022/11/22 00:21:33;;;;;;;149.02;83.40;;;;;;;0.65;75.16;100384.31;1774713;80;21000;-88
2022/11/22 00:28:11;;;;;;;148.50;80.32;;;;;;;0.56;75.20;100379.09;1733623;82;21168;-90
2022/11/22 00:30:59;;;;;;;149.38;82.82;;;;;;;0.56;75.21;100381.69;1707078;83;21095;-89
2022/11/22 00:33:58;;;;;;;157.20;87.80;;;;;;;0.60;75.34;100389.62;1761818;81;22476;-90
2022/11/22 00:36:26;;;;;;;158.30;85.50;;;;;;;0.62;75.34;100400.95;1762184;80;21497;-88
2022/11/22 00:39:00;;;;;;;158.12;86.70;;;;;;;0.67;75.37;100402.13;1763896;80;21047;-87
2022/11/22 00:41:34;;;;;;;156.67;86.25;;;;;;;0.67;75.26;100398.24;1776052;79;21031;-88
2022/11/22 00:44:13;;;;;;;152.27;84.58;;;;;;;0.69;75.32;100397.93;1780539;79;21116;-88
2022/11/22 00:46:40;;;;;;;147.75;82.35;;;;;;;0.73;75.43;100409.87;1762556;80;21838;-88
2022/11/22 00:49:19;;;;;;;175.85;91.02;;;;;;;0.77;75.42;100409.25;1767065;79;21027;-88
2022/11/22 00:52:01;;;;;;;188.25;96.95;;;;;;;0.77;75.25;100405.36;1791357;79;21577;-88
2022/11/22 00:59:02;;;;;;;151.27;82.67;;;;;;;0.77;75.29;100401.88;1773939;80;21004;-91
2022/11/22 01:02:25;;;;;;;152.85;83.67;;;;;;;0.79;75.23;100408.05;1774294;80;21767;-89
2022/11/22 01:05:41;;;;;;;150.18;81.78;;;;;;;0.75;75.11;100400.87;1777161;79;21015;-88
2022/11/22 01:08:14;;;;;;;145.97;81.47;;;;;;;0.78;75.26;100403.65;1795111;79;21932;-89
2022/11/22 01:10:46;;;;;;;155.93;85.53;;;;;;;0.80;75.25;100395.97;1774797;80;21025;-86
2022/11/22 01:13:22;;;;;;;142.22;82.22;;;;;;;0.80;75.24;100398.56;1780570;79;21055;-86
2022/11/22 01:16:00;;;;;;;164.03;88.50;;;;;;;0.79;75.31;100410.64;1778577;79;21822;-88
2022/11/22 01:18:27;;;;;;;167.77;88.58;;;;;;;0.78;75.34;100410.13;1786829;79;21036;-86
2022/11/22 01:20:54;;;;;;;147.75;82.20;;;;;;;0.83;75.53;100417.78;1773133;79;21024;-86
2022/11/22 01:23:21;;;;;;;185.60;103.20;;;;;;;0.87;75.46;100417.56;1772933;79;21056;-86
2022/11/22 01:25:48;;;;;;;176.40;96.92;;;;;;;0.89;75.37;100410.77;1780503;79;21071;-85
2022/11/22 01:28:15;;;;;;;212.57;112.25;;;;;;;0.77;75.30;100388.93;1732094;82;21774;-88
2022/11/22 01:30:42;;;;;;;164.57;93.58;;;;;;;0.89;75.35;100405.58;1699164;82;21552;-88
2022/11/22 01:33:11;;;;;;;196.95;105.35;;;;;;;0.89;75.29;100413.36;1773837;80;21871;-88
2022/11/22 01:35:38;;;;;;;282.20;147.17;;;;;;;0.93;75.46;100419.20;1785874;79;21692;-87
2022/11/22 01:38:06;;;;;;;202.60;108.95;;;;;;;0.92;75.39;100415.72;1778510;79;21630;-88
2022/11/22 01:40:33;;;;;;;216.53;117.85;;;;;;;0.94;75.38;100408.93;1723804;82;21847;-88
2022/11/22 01:43:00;;;;;;;183.87;101.05;;;;;;;0.91;75.27;100399.67;1745156;81;21043;-89
2022/11/22 01:45:38;;;;;;;172.45;96.28;;;;;;;0.91;75.32;100404.85;1721792;82;21083;-87
2022/11/22 01:48:34;;;;;;;159.90;90.15;;;;;;;0.93;75.37;100407.54;1736754;82;21061;-86
2022/11/22 01:51:18;;;;;;;181.50;98.70;;;;;;;0.94;75.27;100410.23;1736391;80;21032;-86
2022/11/22 01:53:45;;;;;;;174.97;95.62;;;;;;;0.90;75.30;100403.09;1737717;80;21808;-86
2022/11/22 01:56:14;;;;;;;156.30;87.02;;;;;;;0.91;75.35;100406.56;1737254;82;21084;-88
2022/11/22 01:58:41;;;;;;;175.72;95.12;;;;;;;0.89;75.20;100401.28;1782249;79;21049;-87
2022/11/22 02:01:20;;;;;;;157.18;85.90;;;;;;;0.88;75.28;100402.11;1777375;79;21071;-89
2022/11/22 02:03:47;;;;;;;144.80;82.37;;;;;;;0.90;75.38;100401.79;1780375;79;21063;-91
2022/11/22 02:06:15;;;;;;;145.68;84.28;;;;;;;0.92;75.46;100405.36;1783703;79;22468;-88
2022/11/22 02:08:48;;;;;;;149.40;84.35;;;;;;;0.95;75.47;100406.81;1773342;80;21722;-89
2022/11/22 02:11:15;;;;;;;156.12;87.20;;;;;;;0.96;75.37;100403.43;1768023;79;21511;-88
2022/11/22 02:13:42;;;;;;;150.27;83.15;;;;;;;0.99;75.53;100400.52;1782205;79;22047;-87
2022/11/22 02:16:09;;;;;;;152.87;84.85;;;;;;;1.02;75.51;100405.89;1778943;79;21048;-88
2022/11/22 02:18:36;;;;;;;153.68;84.72;;;;;;;1.03;75.32;100405.07;1775444;79;22464;-88
2022/11/22 02:21:03;;;;;;;149.55;83.78;;;;;;;1.05;75.43;100406.05;1774884;79;21068;-88
2022/11/22 02:23:45;;;;;;;148.25;79.82;;;;;;;1.10;75.50;100411.10;1783393;79;21654;-88
2022/11/22 02:26:17;;;;;;;170.57;94.72;;;;;;;1.08;75.25;100411.42;1780990;79;21670;-86
2022/11/22 02:28:44;;;;;;;203.00;108.90;;;;;;;1.06;75.23;100417.80;1784189;79;21074;-89
2022/11/22 02:31:32;;;;;;;155.78;85.57;;;;;;;1.07;75.28;100416.09;1765546;79;21767;-86
2022/11/22 02:33:58;;;;;;;142.13;80.42;;;;;;;1.08;75.37;100422.67;1772016;80;21296;-86
2022/11/22 02:36:25;;;;;;;158.82;88.03;;;;;;;1.11;75.42;100429.34;1776396;79;21030;-87
2022/11/22 02:38:55;;;;;;;153.18;85.22;;;;;;;1.13;75.32;100429.44;1774217;79;21019;-87
2022/11/22 02:41:22;;;;;;;146.30;82.17;;;;;;;1.11;75.25;100424.57;1778278;79;21035;-87
2022/11/22 02:43:49;;;;;;;149.27;82.92;;;;;;;1.12;75.27;100430.23;1781242;79;22432;-87
2022/11/22 02:46:19;;;;;;;142.10;80.85;;;;;;;1.10;75.21;100414.99;1769439;79;21095;-87
2022/11/22 02:48:44;;;;;;;143.82;78.70;;;;;;;1.07;75.15;100414.80;1778241;79;21042;-89
2022/11/22 02:51:15;;;;;;;136.30;79.12;;;;;;;1.10;75.23;100414.99;1774790;79;21445;-88
2022/11/22 02:53:39;;;;;;;149.50;80.83;;;;;;;1.11;75.21;100424.57;1735281;82;21091;-88
2022/11/22 02:56:06;;;;;;;143.22;79.20;;;;;;;1.11;75.16;100422.86;1722859;82;21779;-88
2022/11/22 02:58:33;;;;;;;140.97;79.20;;;;;;;1.11;75.06;100419.38;1718986;82;21087;-85
2022/11/22 03:01:00;;;;;;;140.30;77.62;;;;;;;1.06;74.87;100412.63;1771950;80;21979;-85
2022/11/22 03:03:27;;;;;;;136.30;77.42;;;;;;;0.97;74.74;100425.05;1787712;79;21605;-86
2022/11/22 03:05:54;;;;;;;139.35;77.27;;;;;;;0.96;75.01;100426.75;1776360;79;21031;-88
2022/11/22 03:08:20;;;;;;;144.70;78.37;;;;;;;1.02;75.07;100425.33;1722468;82;22020;-88
2022/11/22 03:10:47;;;;;;;145.10;80.67;;;;;;;1.01;74.92;100427.00;1719591;82;21059;-88
2022/11/22 03:13:15;;;;;;;141.35;76.55;;;;;;;1.04;74.96;100418.53;1774457;79;21083;-85
2022/11/22 03:15:44;;;;;;;140.43;79.12;;;;;;;1.00;74.74;100415.28;1782874;79;21576;-86
2022/11/22 03:18:18;;;;;;;144.20;78.72;;;;;;;0.97;74.74;100411.67;1778680;79;21254;-86
2022/11/22 03:20:45;;;;;;;142.50;79.60;;;;;;;0.97;74.87;100406.49;1717271;82;21777;-86
2022/11/22 03:23:12;;;;;;;142.60;76.80;;;;;;;1.02;74.93;100404.59;1785910;79;21050;-87
2022/11/22 03:25:39;;;;;;;136.92;75.15;;;;;;;1.01;74.84;100402.38;1778441;79;21067;-87
2022/11/22 03:28:06;;;;;;;136.28;77.08;;;;;;;1.02;74.95;100401.59;1779116;79;21078;-87
2022/11/22 03:30:33;;;;;;;139.03;76.02;;;;;;;1.04;74.96;100397.80;1776349;79;21034;-87
2022/11/22 03:33:00;;;;;;;139.12;77.10;;;;;;;0.99;74.67;100398.81;1775861;79;22398;-88
2022/11/22 03:35:26;;;;;;;139.10;78.15;;;;;;;0.96;74.82;100399.95;1787376;79;21066;-88
2022/11/22 03:37:53;;;;;;;139.92;77.00;;;;;;;0.94;74.85;100397.27;1718241;82;21127;-88
2022/11/22 03:40:20;;;;;;;131.63;77.12;;;;;;;0.97;74.86;100401.31;1722097;82;21420;-88
2022/11/22 03:42:47;;;;;;;140.28;77.12;;;;;;;0.92;74.66;100401.84;1714918;82;21083;-87
2022/11/22 03:45:14;;;;;;;133.05;75.57;;;;;;;0.84;74.73;100392.75;1785434;79;21079;-86
2022/11/22 03:47:43;;;;;;;144.20;80.42;;;;;;;0.78;74.84;100380.34;1773568;79;21241;-87
2022/11/22 03:50:11;;;;;;;138.03;77.22;;;;;;;0.84;74.84;100392.75;1783876;79;21043;-86
2022/11/22 03:52:37;;;;;;;136.28;77.20;;;;;;;0.81;74.83;100395.16;1708593;83;21348;-88
2022/11/22 03:55:05;;;;;;;138.70;77.08;;;;;;;0.83;74.95;100400.94;1715041;82;21552;-88
2022/11/22 03:57:32;;;;;;;134.85;76.55;;;;;;;0.84;75.02;100397.52;1711204;82;21779;-87
2022/11/22 03:59:59;;;;;;;136.77;74.67;;;;;;;0.88;75.11;100398.22;1713932;82;21053;-86
2022/11/22 04:02:26;;;;;;;140.50;77.10;;;;;;;0.90;75.10;100394.02;1711998;82;21565;-87
2022/11/22 04:04:53;;;;;;;136.47;77.92;;;;;;;0.90;75.04;100390.13;1714878;82;21059;-87
2022/11/22 04:07:20;;;;;;;142.65;79.12;;;;;;;0.93;74.99;100386.80;1717592;82;21063;-87
2022/11/22 04:09:48;;;;;;;137.00;75.52;;;;;;;0.92;75.02;100401.84;1769702;79;22539;-86
2022/11/22 04:12:21;;;;;;;139.15;75.25;;;;;;;0.94;75.24;100401.16;1768603;79;21055;-87
2022/11/22 04:15:07;;;;;;;141.32;77.60;;;;;;;0.99;75.30;100401.81;1765734;79;21043;-86
2022/11/22 04:17:39;;;;;;;141.80;79.32;;;;;;;1.01;75.27;100412.75;1784306;79;21073;-87
2022/11/22 04:23:09;;;;;;;137.25;76.62;;;;;;;1.00;75.24;100412.28;1769943;79;21620;-87
2022/11/22 04:25:38;;;;;;;133.25;75.03;;;;;;;1.00;75.22;100404.50;1713766;82;21075;-87
2022/11/22 04:28:12;;;;;;;135.72;75.97;;;;;;;1.04;75.26;100412.05;1709934;83;22279;-87
2022/11/22 04:33:25;;;;;;;132.47;76.55;;;;;;;1.05;75.30;100404.75;1717000;82;21321;-86
2022/11/22 04:35:52;;;;;;;142.28;76.17;;;;;;;1.11;75.36;100403.42;1712018;82;22543;-86
2022/11/22 04:38:18;;;;;;;128.47;72.75;;;;;;;1.15;75.41;100398.01;1702386;83;21057;-87
2022/11/22 04:40:45;;;;;;;130.67;74.10;;;;;;;1.18;75.33;100399.87;1766484;79;21060;-86
2022/11/22 04:46:03;;;;;;;119.37;69.25;;;;;;;1.18;75.25;100396.86;1764786;79;21627;-87
2022/11/22 04:48:30;;;;;;;135.52;71.47;;;;;;;1.21;75.28;100390.98;1760386;79;22570;-87
2022/11/22 04:53:43;;;;;;;125.58;70.22;;;;;;;1.23;75.35;100401.92;1748531;80;21092;-87
2022/11/22 04:56:11;;;;;;;125.50;70.30;;;;;;;1.27;75.35;100406.47;1763570;81;21066;-88
2022/11/22 04:58:38;;;;;;;127.35;72.22;;;;;;;1.28;75.33;100406.09;1756793;80;21207;-88
2022/11/22 05:01:04;;;;;;;138.25;73.80;;;;;;;1.28;75.33;100397.89;1760100;81;21752;-84
2022/11/22 05:03:31;;;;;;;129.40;74.60;;;;;;;1.29;75.33;100394.47;1748767;81;21068;-85
2022/11/22 05:06:01;;;;;;;126.95;71.50;;;;;;;1.26;75.16;100394.70;1746338;81;21050;-85
2022/11/22 05:08:29;;;;;;;131.75;73.95;;;;;;;1.24;75.25;100397.61;1740638;81;21398;-85
2022/11/22 05:10:55;;;;;;;143.62;76.72;;;;;;;1.26;75.39;100393.41;1696600;83;21153;-83
2022/11/22 05:13:34;;;;;;;126.53;73.28;;;;;;;1.29;75.39;100398.36;1763642;80;21742;-84
2022/11/22 05:16:01;;;;;;;127.72;72.92;;;;;;;1.32;75.42;100411.92;1690220;82;21031;-82
2022/11/22 05:18:29;;;;;;;125.50;71.75;;;;;;;1.32;75.34;100419.70;1757802;80;21072;-83
2022/11/22 05:20:57;;;;;;;149.30;77.35;;;;;;;1.28;75.15;100424.23;1756134;80;21144;-85
2022/11/22 05:26:09;;;;;;;139.92;77.55;;;;;;;1.23;75.31;100411.41;1725991;82;21783;-85
2022/11/22 05:28:36;;;;;;;147.65;81.50;;;;;;;1.22;75.37;100412.19;1754624;80;21329;-84
2022/11/22 05:31:15;;;;;;;142.30;77.82;;;;;;;1.21;75.31;100418.20;1753494;81;21002;-83
2022/11/22 05:33:43;;;;;;;134.47;75.25;;;;;;;1.21;75.42;100412.61;1747434;80;21055;-87
2022/11/22 05:36:09;;;;;;;135.55;74.58;;;;;;;1.20;75.34;100422.47;1758808;80;21083;-84
2022/11/22 05:38:36;;;;;;;141.40;78.37;;;;;;;1.22;75.46;100423.48;1741314;80;21715;-85
2022/11/22 05:41:05;;;;;;;136.72;75.52;;;;;;;1.22;75.45;100426.08;1756221;80;38041;-84
2022/11/22 05:43:32;;;;;;;141.88;76.33;;;;;;;1.16;75.42;100412.73;1752294;80;21077;-88
2022/11/22 05:46:06;;;;;;;134.15;76.45;;;;;;;1.25;75.53;100424.94;1754624;80;21060;-86
2022/11/22 05:48:33;;;;;;;144.80;76.75;;;;;;;1.28;75.54;100429.42;1756735;80;20994;-86
2022/11/22 05:51:06;;;;;;;142.05;77.17;;;;;;;1.28;75.49;100436.78;1755031;80;22409;-84
2022/11/22 05:53:33;;;;;;;139.62;78.12;;;;;;;1.32;75.61;100437.45;1699224;82;21064;-86
2022/11/22 05:56:12;;;;;;;147.78;79.32;;;;;;;1.34;75.47;100434.53;1744436;79;21122;-87
2022/11/22 05:58:40;;;;;;;143.07;78.05;;;;;;;1.37;75.58;100428.65;1771969;79;21040;-85
2022/11/22 06:01:14;;;;;;;140.75;77.75;;;;;;;1.42;75.57;100443.16;1764982;79;21697;-88
2022/11/22 06:03:40;;;;;;;136.80;76.65;;;;;;;1.42;75.46;100444.04;1750980;79;22715;-87
2022/11/22 06:06:07;;;;;;;133.00;75.15;;;;;;;1.42;75.41;100437.97;1755378;79;22169;-88
2022/11/22 06:08:37;;;;;;;139.15;77.92;;;;;;;1.40;75.39;100438.29;1770847;79;21033;-88
2022/11/22 06:11:09;;;;;;;134.97;76.07;;;;;;;1.34;75.35;100442.31;1702510;82;21107;-87
2022/11/22 06:13:38;;;;;;;154.00;80.80;;;;;;;1.34;75.47;100438.83;1757740;79;21016;-87
2022/11/22 06:16:06;;;;;;;146.10;76.97;;;;;;;1.34;75.44;100445.31;1745174;79;22507;-85
2022/11/22 06:18:33;;;;;;;147.95;77.40;;;;;;;1.32;75.38;100446.94;1742732;79;21528;-87
2022/11/22 06:21:06;;;;;;;138.88;75.32;;;;;;;1.29;75.57;100447.63;1766969;79;22071;-86
2022/11/22 06:23:32;;;;;;;142.32;76.72;;;;;;;1.32;75.66;100450.41;1747856;79;21020;-85
2022/11/22 06:26:05;;;;;;;136.92;76.07;;;;;;;1.36;75.63;100457.96;1750972;79;21557;-88
2022/11/22 06:28:33;;;;;;;142.50;75.75;;;;;;;1.34;75.61;100463.06;1702027;82;21390;-87
2022/11/22 06:31:01;;;;;;;136.28;72.47;;;;;;;1.36;75.71;100462.73;1746587;80;21078;-86
2022/11/22 06:33:28;;;;;;;136.30;72.85;;;;;;;1.40;75.77;100470.30;1700614;79;21102;-86
2022/11/22 06:36:09;;;;;;;143.28;74.32;;;;;;;1.44;75.80;100470.07;1759620;79;21516;-85
2022/11/22 06:38:37;;;;;;;137.10;71.97;;;;;;;1.45;75.77;100466.69;1718366;81;21494;-86
2022/11/22 06:41:07;;;;;;;143.90;75.90;;;;;;;1.44;75.74;100467.47;1743272;79;21747;-85
2022/11/22 06:43:36;;;;;;;141.82;74.42;;;;;;;1.45;75.83;100474.05;1763569;79;21048;-85
2022/11/22 06:46:03;;;;;;;134.95;72.50;;;;;;;1.46;75.76;100473.64;1754022;79;21083;-84
2022/11/22 06:48:34;;;;;;;137.82;71.33;;;;;;;1.46;75.80;100476.23;1765024;79;21092;-84
2022/11/22 06:51:08;;;;;;;133.85;73.37;;;;;;;1.44;75.70;100479.14;1754243;79;21238;-85
2022/11/22 06:53:35;;;;;;;135.15;70.30;;;;;;;1.42;75.75;100488.13;1787353;79;22572;-85
2022/11/22 06:56:12;;;;;;;125.30;68.78;;;;;;;1.44;75.91;100486.52;1781842;79;21110;-84
2022/11/22 06:58:39;;;;;;;124.45;66.30;;;;;;;1.46;75.86;100482.30;1769516;80;21035;-84
2022/11/22 07:01:12;;;;;;;129.00;69.00;;;;;;;1.49;75.99;100484.20;1780670;79;21030;-85
2022/11/22 07:03:39;;;;;;;123.38;66.87;;;;;;;1.53;76.03;100487.05;1777865;79;27639;-84
2022/11/22 07:06:07;;;;;;;128.80;68.37;;;;;;;1.58;76.03;100496.40;1780857;79;21071;-84
2022/11/22 07:08:34;;;;;;;122.10;67.15;;;;;;;1.63;76.07;100499.23;1772883;79;21086;-85
2022/11/22 07:11:13;;;;;;;123.25;68.22;;;;;;;1.65;75.97;100495.03;1786754;79;21062;-86
2022/11/22 07:13:40;;;;;;;119.30;67.42;;;;;;;1.66;75.98;100504.20;1782799;79;21070;-85
2022/11/22 07:16:09;;;;;;;128.27;70.10;;;;;;;1.68;75.96;100501.70;1774103;79;21100;-84
2022/11/22 07:18:36;;;;;;;126.87;68.25;;;;;;;1.71;76.00;100500.59;1785313;79;21750;-85
2022/11/22 07:21:05;;;;;;;123.18;67.45;;;;;;;1.73;76.01;100498.55;1782468;79;21098;-87
2022/11/22 07:23:32;;;;;;;129.55;69.97;;;;;;;1.76;75.98;100490.04;1776728;79;21099;-84
2022/11/22 07:25:59;;;;;;;132.32;71.50;;;;;;;1.78;75.86;100497.91;1783786;79;21027;-84
2022/11/22 07:28:25;;;;;;;130.50;72.47;;;;;;;1.74;75.82;100498.14;1774570;79;21054;-85
2022/11/22 07:30:52;;;;;;;126.80;70.70;;;;;;;1.74;75.82;100504.22;1784381;79;21678;-84
2022/11/22 07:33:19;;;;;;;124.90;71.05;;;;;;;1.75;75.89;100503.42;1781138;79;21024;-84
2022/11/22 07:35:46;;;;;;;120.13;68.55;;;;;;;1.80;75.97;100504.08;1783595;79;21015;-84
2022/11/22 07:38:12;;;;;;;122.17;65.95;;;;;;;1.80;75.89;100509.27;1778563;79;21635;-84
2022/11/22 07:40:39;;;;;;;120.33;68.65;;;;;;;1.80;75.88;100515.76;1776171;79;21538;-85
2022/11/22 07:43:06;;;;;;;118.28;64.40;;;;;;;1.82;75.93;100516.73;1778545;79;22506;-84
2022/11/22 07:45:33;;;;;;;125.62;67.60;;;;;;;1.83;75.98;100518.13;1784724;79;21079;-85
2022/11/22 07:48:00;;;;;;;126.47;68.70;;;;;;;1.86;75.91;100516.09;1772847;79;21695;-84
2022/11/22 07:50:27;;;;;;;127.55;69.20;;;;;;;1.83;75.91;100518.13;1777692;79;21338;-84
2022/11/22 07:52:58;;;;;;;130.82;69.77;;;;;;;1.85;75.94;100515.63;1771780;79;21543;-86
2022/11/22 07:55:25;;;;;;;132.67;69.87;;;;;;;1.85;75.99;100523.41;1771573;79;21783;-85
2022/11/22 07:57:52;;;;;;;138.52;71.70;;;;;;;1.85;75.99;100525.59;1774954;79;21008;-86
2022/11/22 08:00:19;;;;;;;146.93;71.15;;;;;;;1.85;75.99;100520.81;1772101;79;21075;-85
2022/11/22 08:02:46;;;;;;;157.35;72.72;;;;;;;1.84;75.93;100507.33;1742255;81;21052;-86
2022/11/22 08:05:13;;;;;;;157.72;73.47;;;;;;;1.83;75.97;100497.78;1705474;82;21515;-84
2022/11/22 08:07:47;;;;;;;152.80;71.45;;;;;;;1.85;76.08;100500.05;1725681;82;21752;-85
2022/11/22 08:10:14;;;;;;;156.32;71.15;;;;;;;1.84;76.10;100501.77;1711033;81;21580;-84
2022/11/22 08:12:41;;;;;;;139.18;66.87;;;;;;;1.90;76.21;100522.86;1718167;81;21623;-85
2022/11/22 08:15:08;;;;;;;162.07;69.15;;;;;;;1.93;76.27;100534.72;1726787;82;21308;-85
2022/11/22 08:17:35;;;;;;;165.18;69.03;;;;;;;1.98;76.26;100545.34;1723960;81;22428;-87
2022/11/22 08:20:02;;;;;;;158.27;71.42;;;;;;;1.99;76.29;100540.66;1726342;81;21733;-85
2022/11/22 08:22:29;;;;;;;171.85;71.22;;;;;;;2.03;76.30;100546.51;1721061;82;21140;-84
2022/11/22 08:24:57;;;;;;;175.50;75.62;;;;;;;2.05;76.34;100555.27;1721956;82;21622;-85
2022/11/22 08:27:27;;;;;;;173.00;78.95;;;;;;;2.07;76.36;100552.35;1735485;82;21121;-85
2022/11/22 08:29:54;;;;;;;171.20;76.70;;;;;;;2.06;76.16;100558.34;1722816;81;21063;-84
2022/11/22 08:32:21;;;;;;;162.40;75.05;;;;;;;2.04;76.16;100546.98;1725762;82;21909;-84
2022/11/22 08:34:50;;;;;;;163.35;73.37;;;;;;;2.03;76.22;100553.41;1720660;81;21036;-85
2022/11/22 08:37:17;;;;;;;174.38;74.72;;;;;;;2.07;76.26;100560.14;1725899;82;21092;-84
2022/11/22 08:39:44;;;;;;;169.22;75.37;;;;;;;2.10;76.34;100549.94;1738084;81;21047;-84
2022/11/22 08:42:12;;;;;;;158.18;72.95;;;;;;;2.15;76.29;100548.88;1717923;81;21043;-84
2022/11/22 08:44:43;;;;;;;162.60;74.03;;;;;;;2.22;76.35;100544.94;1719740;82;21403;-84
2022/11/22 08:47:10;;;;;;;169.55;74.42;;;;;;;2.22;76.17;100548.42;1733216;82;21302;-85
2022/11/22 08:49:37;;;;;;;170.87;76.10;;;;;;;2.23;76.24;100546.70;1725751;82;21053;-85
2022/11/22 08:52:04;;;;;;;171.43;76.57;;;;;;;2.25;76.28;100542.11;1724724;82;21054;-85
2022/11/22 08:54:32;;;;;;;184.28;78.87;;;;;;;2.32;76.33;100553.70;1696026;82;21082;-85
2022/11/22 08:56:59;;;;;;;173.38;78.00;;;;;;;2.39;76.38;100544.56;1719022;82;21819;-82
2022/11/22 08:59:26;;;;;;;177.82;78.67;;;;;;;2.42;76.24;100543.41;1724386;82;21158;-82
2022/11/22 09:01:53;;;;;;;174.80;78.72;;;;;;;2.47;76.29;100547.16;1730152;81;21111;-85
2022/11/22 09:04:19;;;;;;;174.23;80.75;;;;;;;2.49;76.20;100545.53;1727219;82;21176;-85
2022/11/22 09:06:46;;;;;;;179.18;79.92;;;;;;;2.46;75.99;100542.37;1723279;82;21078;-85
2022/11/22 09:09:13;;;;;;;171.35;80.60;;;;;;;2.43;76.06;100546.09;1730789;82;21792;-85
2022/11/22 09:11:42;;;;;;;173.95;78.72;;;;;;;2.49;76.14;100541.63;1722044;82;21103;-85
2022/11/22 09:14:11;;;;;;;182.00;77.67;;;;;;;2.52;76.04;100549.60;1720340;82;21076;-86
2022/11/22 09:16:38;;;;;;;167.37;76.20;;;;;;;2.55;76.07;100543.67;1731871;82;21066;-87
2022/11/22 09:19:05;;;;;;;160.43;73.00;;;;;;;2.58;76.05;100544.73;1720215;82;21043;-86
2022/11/22 09:21:32;;;;;;;159.10;74.17;;;;;;;2.54;75.84;100545.38;1722945;82;21774;-86
2022/11/22 09:23:59;;;;;;;159.50;74.50;;;;;;;2.56;75.91;100551.97;1717863;82;21056;-86
2022/11/22 09:26:26;;;;;;;153.90;71.40;;;;;;;2.58;75.84;100549.04;1725804;82;21055;-86
2022/11/22 09:28:55;;;;;;;154.90;67.67;;;;;;;2.58;75.82;100546.44;1722453;82;21076;-86
2022/11/22 09:31:23;;;;;;;163.20;72.15;;;;;;;2.57;75.77;100545.52;1727204;82;21098;-86
2022/11/22 09:33:50;;;;;;;153.18;72.72;;;;;;;2.58;75.83;100536.05;1728150;82;22672;-86
2022/11/22 09:36:19;;;;;;;162.32;74.82;;;;;;;2.64;75.89;100528.16;1727583;81;21920;-86
2022/11/22 09:38:46;;;;;;;161.22;73.47;;;;;;;2.68;75.92;100539.61;1727566;80;21114;-86
2022/11/22 09:41:27;;;;;;;155.63;74.58;;;;;;;2.75;75.90;100551.23;1722454;82;21053;-86
2022/11/22 09:44:26;;;;;;;160.37;74.27;;;;;;;2.78;75.76;100547.10;1726968;82;21626;-86
2022/11/22 09:47:19;;;;;;;155.87;74.60;;;;;;;2.78;75.66;100538.38;1730896;81;23018;-86
2022/11/22 09:50:15;;;;;;;157.40;73.35;;;;;;;2.80;75.66;100539.39;1717014;82;21561;-83
2022/11/22 09:52:56;;;;;;;156.55;72.75;;;;;;;2.80;75.45;100538.97;1731615;81;21075;-84
2022/11/22 09:55:45;;;;;;;160.05;76.40;;;;;;;2.76;75.37;100540.93;1736386;81;21260;-85
2022/11/22 09:58:32;;;;;;;148.20;71.92;;;;;;;2.72;75.23;100544.16;1724929;81;21178;-84
2022/11/22 10:01:04;;;;;;;153.53;72.25;;;;;;;2.64;75.20;100545.47;1730204;81;21770;-83
2022/11/22 10:04:00;;;;;;;147.55;70.40;;;;;;;2.64;75.39;100545.05;1722806;81;21642;-83
2022/11/22 10:06:36;;;;;;;154.93;72.12;;;;;;;2.67;75.43;100543.92;1713374;81;21587;-84
2022/11/22 10:09:31;;;;;;;153.18;69.05;;;;;;;2.73;75.37;100545.54;1730000;81;22088;-84
2022/11/22 10:12:22;;;;;;;148.80;67.20;;;;;;;2.78;75.46;100548.40;1717164;81;21089;-83
2022/11/22 10:15:15;;;;;;;150.25;71.28;;;;;;;2.85;75.41;100554.42;1731005;80;21767;-83
2022/11/22 10:18:24;;;;;;;144.13;67.73;;;;;;;2.85;75.25;100543.10;1677905;84;21676;-83
2022/11/22 10:20:51;;;;;;;144.10;67.15;;;;;;;2.80;74.90;100545.47;1670796;84;21102;-82
2022/11/22 10:23:23;;;;;;;135.75;65.25;;;;;;;2.71;74.86;100547.58;1678836;84;21096;-82
2022/11/22 10:25:59;;;;;;;135.95;63.40;;;;;;;2.73;74.93;100543.36;1674216;84;21082;-83
2022/11/22 10:28:44;;;;;;;136.25;64.62;;;;;;;2.75;74.82;100543.44;1677202;83;21110;-83
2022/11/22 10:31:40;;;;;;;127.42;59.73;;;;;;;2.81;74.96;100538.56;1679390;83;21085;-83
2022/11/22 10:34:36;;;;;;;124.78;59.25;;;;;;;2.84;74.74;100541.33;1736706;82;21281;-83
2022/11/22 10:37:38;;;;;;;124.07;57.95;;;;;;;2.88;74.61;100540.26;1719107;82;21062;-82
2022/11/22 10:40:29;;;;;;;128.90;60.25;;;;;;;2.95;74.52;100534.06;1717980;81;21062;-82
2022/11/22 10:43:28;;;;;;;121.57;53.40;;;;;;;3.02;74.41;100537.09;1721588;82;22236;-82
2022/11/22 10:46:18;;;;;;;115.08;53.42;;;;;;;3.11;74.27;100544.04;1722652;82;21087;-82
2022/11/22 10:49:11;;;;;;;113.52;52.23;;;;;;;3.19;74.24;100548.37;1722979;82;21168;-82
2022/11/22 10:52:04;;;;;;;117.30;55.20;;;;;;;3.25;73.98;100552.57;1724695;82;22216;-82
2022/11/22 10:54:58;;;;;;;105.07;51.60;;;;;;;3.30;73.91;100549.80;1717318;82;21058;-81
2022/11/22 10:57:35;;;;;;;104.05;51.70;;;;;;;3.37;73.71;100550.99;1679203;82;22736;-84
2022/11/22 11:00:23;;;;;;;111.05;53.42;;;;;;;3.40;73.56;100552.88;1706066;82;21110;-82
2022/11/22 11:03:02;;;;;;;105.05;50.95;;;;;;;3.42;73.47;100553.42;1707176;82;21106;-82
2022/11/22 11:06:03;;;;;;;105.75;51.68;;;;;;;3.39;73.43;100553.27;1713718;82;21120;-82
2022/11/22 11:08:45;;;;;;;113.05;55.23;;;;;;;3.37;73.39;100538.40;1712628;82;21115;-82
2022/11/22 11:11:15;;;;;;;109.95;53.83;;;;;;;3.45;73.15;100547.09;1709894;82;22663;-81
2022/11/22 11:13:52;;;;;;;116.15;55.35;;;;;;;3.47;73.19;100544.16;1705630;82;21144;-82
2022/11/22 11:16:22;;;;;;;109.12;55.10;;;;;;;3.49;73.05;100536.02;1707565;82;21075;-82
2022/11/22 11:19:08;;;;;;;118.33;57.45;;;;;;;3.50;72.96;100535.17;1709505;82;21103;-82
2022/11/22 11:21:35;;;;;;;129.07;65.45;;;;;;;3.52;72.83;100530.47;1707377;82;21059;-82
2022/11/22 11:24:01;;;;;;;120.92;59.10;;;;;;;3.48;72.71;100534.21;1709152;82;21740;-82
2022/11/22 11:26:34;;;;;;;117.20;58.25;;;;;;;3.40;72.57;100533.36;1711121;82;21117;-82
2022/11/22 11:29:21;;;;;;;119.25;58.87;;;;;;;3.30;72.58;100534.20;1721838;81;20983;-83
2022/11/22 11:31:51;;;;;;;121.40;56.83;;;;;;;3.30;72.74;100536.80;1722539;82;20976;-83
2022/11/22 11:34:24;;;;;;;122.67;56.80;;;;;;;3.24;72.57;100538.19;1710118;82;21017;-83
2022/11/22 11:36:53;;;;;;;126.35;59.20;;;;;;;3.22;72.79;100532.89;1718628;82;21747;-82
2022/11/22 11:39:21;;;;;;;122.35;58.75;;;;;;;3.22;72.79;100531.59;1718389;81;20976;-82
2022/11/22 11:41:48;;;;;;;120.60;58.33;;;;;;;3.18;72.62;100528.36;1716011;82;20976;-82
2022/11/22 11:44:35;;;;;;;124.33;59.85;;;;;;;3.07;72.59;100525.20;1720222;82;21394;-82
2022/11/22 11:47:04;;;;;;;120.62;56.90;;;;;;;3.01;72.64;100521.41;1725499;82;20967;-82
2022/11/22 11:49:34;;;;;;;128.42;62.48;;;;;;;2.99;72.73;100518.73;1715580;83;21873;-83
2022/11/22 11:52:03;;;;;;;125.90;61.18;;;;;;;2.95;72.72;100521.98;1719474;82;21320;-82
2022/11/22 11:54:48;;;;;;;117.13;58.33;;;;;;;2.94;72.89;100512.80;1743274;79;21021;-82
2022/11/22 11:57:19;;;;;;;121.75;59.15;;;;;;;2.89;72.87;100508.27;1782467;79;21007;-82
2022/11/22 11:59:47;;;;;;;133.60;62.62;;;;;;;2.83;72.78;100507.03;1776606;79;21067;-82